Time;durP1;ratioP1;P1;durP2;ratioP2;P2;SDS_P1;SDS_P2;PMS_P1;PMS_P2;Temp;Humidity;BMP_temperature;BMP_pressure;BME280_temperature;BME280_humidity;BME280_pressure;Samples;Min_cycle;Max_cycle;Signal;HPM_P1;HPM_P2
2024/01/14 00:01:41;;;;;;;59.53;19.40;;;-3.20;99.90;;;;;;4804794;29;20061;-75
2024/01/14 00:04:09;;;;;;;51.50;18.48;;;-2.70;99.90;;;;;;4822947;29;22517;-75
2024/01/14 00:06:38;;;;;;;58.90;19.30;;;-3.20;99.90;;;;;;4787612;29;20057;-76
2024/01/14 00:09:08;;;;;;;69.00;21.90;;;-3.10;99.90;;;;;;4804591;29;20084;-79
2024/01/14 00:11:36;;;;;;;71.45;23.27;;;-3.10;99.90;;;;;;4828647;29;20054;-76
2024/01/14 00:14:05;;;;;;;62.33;21.58;;;-3.20;99.90;;;;;;4839856;29;24515;-75
2024/01/14 00:16:34;;;;;;;60.70;19.50;;;-3.10;99.90;;;;;;4816732;29;20064;-76
2024/01/14 00:19:03;;;;;;;53.55;16.10;;;-3.10;99.90;;;;;;4810312;29;20053;-77
2024/01/14 00:21:31;;;;;;;51.78;17.40;;;-3.10;99.90;;;;;;4814917;29;20068;-74
2024/01/14 00:24:00;;;;;;;58.33;18.92;;;-3.20;99.90;;;;;;4828784;29;22324;-76
2024/01/14 00:26:30;;;;;;;49.67;17.45;;;-3.20;99.90;;;;;;4812340;29;20582;-75
2024/01/14 00:28:59;;;;;;;55.38;17.52;;;-3.10;99.90;;;;;;4827620;29;22717;-76
2024/01/14 00:31:28;;;;;;;52.15;17.73;;;-3.10;99.90;;;;;;4787573;29;20057;-76
2024/01/14 00:33:56;;;;;;;48.35;16.50;;;-3.10;99.90;;;;;;4809671;29;20195;-75
2024/01/14 00:36:25;;;;;;;44.67;15.98;;;-3.10;99.90;;;;;;4797371;29;22346;-75
2024/01/14 00:38:53;;;;;;;51.72;16.13;;;-3.10;99.90;;;;;;4797078;29;20058;-76
2024/01/14 00:41:22;;;;;;;51.30;16.92;;;-3.10;99.90;;;;;;4812572;29;20501;-76
2024/01/14 00:43:52;;;;;;;58.17;17.80;;;-3.00;99.90;;;;;;4797063;29;20360;-75
2024/01/14 00:46:20;;;;;;;54.03;15.93;;;-3.00;99.90;;;;;;4813413;29;20057;-76
2024/01/14 00:48:48;;;;;;;60.75;18.60;;;-3.00;99.90;;;;;;4787877;29;20116;-75
2024/01/14 00:51:18;;;;;;;56.83;16.52;;;-3.00;99.90;;;;;;4795108;29;20586;-76
2024/01/14 00:53:47;;;;;;;51.13;18.48;;;-3.00;99.90;;;;;;4811548;29;20057;-76
2024/01/14 00:56:15;;;;;;;65.75;18.77;;;-3.00;99.90;;;;;;4816351;29;20065;-76
2024/01/14 00:58:44;;;;;;;59.72;18.48;;;-3.00;99.90;;;;;;4831784;29;20065;-78
2024/01/14 01:01:14;;;;;;;65.07;20.08;;;-3.00;99.90;;;;;;4812359;29;20079;-75
2024/01/14 01:03:42;;;;;;;65.15;20.27;;;-3.00;99.90;;;;;;4817438;29;20057;-75
2024/01/14 01:06:11;;;;;;;54.45;17.65;;;-3.00;99.90;;;;;;4807457;29;20063;-76
2024/01/14 01:08:40;;;;;;;51.88;14.93;;;-2.90;99.90;;;;;;4815537;29;20050;-76
2024/01/14 01:11:08;;;;;;;66.03;18.08;;;-2.70;99.90;;;;;;4813657;29;20042;-76
2024/01/14 01:13:36;;;;;;;47.25;15.73;;;-3.00;99.90;;;;;;4811297;29;20058;-75
2024/01/14 01:16:05;;;;;;;57.70;18.15;;;-3.00;99.90;;;;;;4805773;29;20096;-75
2024/01/14 01:18:35;;;;;;;53.30;16.42;;;-3.00;99.90;;;;;;4806508;29;20076;-77
2024/01/14 01:21:04;;;;;;;60.83;17.20;;;-2.80;99.90;;;;;;4813993;29;20516;-76
2024/01/14 01:23:33;;;;;;;46.00;17.15;;;-3.00;99.90;;;;;;4793754;29;22437;-77
2024/01/14 01:26:01;;;;;;;49.20;16.02;;;-3.00;99.90;;;;;;4792842;29;20518;-76
2024/01/14 01:28:30;;;;;;;45.33;15.13;;;-2.70;99.90;;;;;;4794059;29;20086;-75
2024/01/14 01:30:58;;;;;;;55.35;16.17;;;-3.00;99.90;;;;;;4792321;29;20053;-75
2024/01/14 01:33:27;;;;;;;53.13;16.40;;;-3.00;99.90;;;;;;4808576;29;20116;-76
2024/01/14 01:35:57;;;;;;;53.85;16.85;;;-3.00;99.90;;;;;;4811315;29;20096;-75
2024/01/14 01:38:25;;;;;;;52.28;16.50;;;-3.00;99.90;;;;;;4826323;29;20061;-75
2024/01/14 01:40:54;;;;;;;53.53;15.75;;;-3.10;99.90;;;;;;4823343;29;20053;-75
2024/01/14 01:43:25;;;;;;;63.40;18.65;;;-3.20;99.90;;;;;;4807474;29;20136;-74
2024/01/14 01:45:57;;;;;;;52.58;18.48;;;-3.10;99.90;;;;;;4802354;29;20092;-76
2024/01/14 01:48:26;;;;;;;49.07;15.10;;;-3.10;99.90;;;;;;4819404;29;20049;-76
2024/01/14 01:50:56;;;;;;;48.25;18.60;;;-3.10;99.90;;;;;;4818434;29;20390;-77
2024/01/14 01:53:25;;;;;;;62.35;18.90;;;-2.30;99.90;;;;;;4793220;29;20678;-77
2024/01/14 01:55:55;;;;;;;54.03;15.07;;;-3.20;99.90;;;;;;4810891;29;20098;-77
2024/01/14 01:58:23;;;;;;;55.50;15.98;;;-3.10;99.90;;;;;;4798054;29;20065;-78
2024/01/14 02:00:52;;;;;;;38.00;13.15;;;-3.10;99.90;;;;;;4811997;29;20046;-77
2024/01/14 02:03:21;;;;;;;41.55;12.38;;;-3.00;99.90;;;;;;4817438;29;20057;-77
2024/01/14 02:05:53;;;;;;;49.72;14.43;;;-3.00;99.90;;;;;;4814695;29;20060;-78
2024/01/14 02:08:24;;;;;;;39.38;13.55;;;-3.10;99.90;;;;;;4813603;29;20109;-78
2024/01/14 02:10:53;;;;;;;43.95;13.50;;;-3.00;99.90;;;;;;4792652;29;20060;-78
2024/01/14 02:13:22;;;;;;;41.28;12.48;;;-3.00;99.90;;;;;;4794199;29;20058;-77
2024/01/14 02:15:50;;;;;;;41.92;13.75;;;-3.00;99.90;;;;;;4811734;29;20087;-77
2024/01/14 02:18:19;;;;;;;41.90;13.32;;;-3.00;99.90;;;;;;4812524;29;22399;-77
2024/01/14 02:20:47;;;;;;;43.38;13.25;;;-3.00;99.90;;;;;;4824347;29;20068;-78
2024/01/14 02:23:21;;;;;;;40.08;14.48;;;-2.90;99.90;;;;;;4797603;29;20061;-77
2024/01/14 02:25:51;;;;;;;51.40;15.07;;;-2.80;99.90;;;;;;4811764;29;20205;-78
2024/01/14 02:28:21;;;;;;;42.08;12.70;;;-3.00;99.90;;;;;;4812182;29;20429;-77
2024/01/14 02:30:50;;;;;;;40.20;12.70;;;-3.00;99.90;;;;;;4823304;29;20529;-77
2024/01/14 02:33:19;;;;;;;42.65;12.32;;;-2.90;99.90;;;;;;4796137;29;20072;-77
2024/01/14 02:35:47;;;;;;;51.65;14.13;;;-2.90;99.90;;;;;;4795611;29;20060;-78
2024/01/14 02:38:16;;;;;;;41.85;13.95;;;-2.90;99.90;;;;;;4814465;29;20798;-77
2024/01/14 02:40:44;;;;;;;39.13;13.15;;;-2.80;99.90;;;;;;4812510;29;20041;-77
2024/01/14 02:43:14;;;;;;;39.55;12.02;;;-3.00;99.90;;;;;;4815209;29;20053;-78
2024/01/14 02:45:43;;;;;;;44.10;12.48;;;-3.00;99.90;;;;;;4787194;29;20064;-77
2024/01/14 02:48:11;;;;;;;43.13;13.63;;;-3.00;99.90;;;;;;4813932;29;20818;-77
2024/01/14 02:50:40;;;;;;;34.85;11.82;;;-3.00;99.90;;;;;;4803942;29;20063;-77
2024/01/14 02:53:08;;;;;;;38.53;13.15;;;-3.00;99.90;;;;;;4802009;29;20058;-78
2024/01/14 02:55:37;;;;;;;45.38;14.10;;;-3.00;99.90;;;;;;4825604;29;20537;-77
2024/01/14 02:58:05;;;;;;;45.13;13.35;;;-3.00;99.90;;;;;;4794553;29;20109;-77
2024/01/14 03:00:38;;;;;;;38.50;14.18;;;-2.90;99.90;;;;;;4832233;29;20123;-77
2024/01/14 03:03:07;;;;;;;36.63;13.15;;;-3.00;99.90;;;;;;4835001;29;20110;-77
2024/01/14 03:05:36;;;;;;;41.10;13.25;;;-4.10;99.90;;;;;;4855261;29;20037;-78
2024/01/14 03:08:05;;;;;;;43.22;13.20;;;-3.10;99.90;;;;;;4834252;29;20047;-77
2024/01/14 03:10:34;;;;;;;49.30;14.80;;;-3.00;99.90;;;;;;4844142;29;20124;-78
2024/01/14 03:13:04;;;;;;;43.60;13.60;;;-2.80;99.90;;;;;;4868399;29;20078;-77
2024/01/14 03:15:33;;;;;;;47.88;14.77;;;-3.00;99.90;;;;;;4854306;29;21950;-77
2024/01/14 03:18:03;;;;;;;44.45;12.40;;;-2.90;99.90;;;;;;4862298;29;20053;-77
2024/01/14 03:20:33;;;;;;;45.90;13.82;;;-3.10;99.90;;;;;;4840432;29;20054;-78
2024/01/14 03:23:02;;;;;;;47.63;13.60;;;-3.40;99.90;;;;;;4867945;29;20061;-77
2024/01/14 03:25:31;;;;;;;39.78;12.45;;;-3.70;99.90;;;;;;4835475;29;20053;-77
2024/01/14 03:28:00;;;;;;;38.28;10.10;;;-1.50;99.90;;;;;;4870442;29;20215;-78
2024/01/14 03:30:29;;;;;;;39.33;12.13;;;-3.00;99.90;;;;;;4837596;29;20070;-77
2024/01/14 03:32:58;;;;;;;44.03;12.20;;;-2.90;99.90;;;;;;4840143;29;20041;-77
2024/01/14 03:35:28;;;;;;;34.15;11.98;;;-2.90;99.90;;;;;;4839284;29;20045;-77
2024/01/14 03:37:57;;;;;;;39.53;12.95;;;-3.10;99.90;;;;;;4854323;29;20046;-78
2024/01/14 03:40:31;;;;;;;36.95;12.10;;;-2.10;99.90;;;;;;4856957;29;20106;-77
2024/01/14 03:43:00;;;;;;;45.38;12.80;;;-3.40;99.90;;;;;;4835636;29;20042;-77
2024/01/14 03:45:29;;;;;;;34.65;11.15;;;-3.30;99.90;;;;;;4829675;29;20061;-77
2024/01/14 03:50:58;;;;;;;29.00;9.40;;;-3.10;99.90;;;;;;5787075;23;20057;-78
2024/01/14 03:53:29;;;;;;;34.17;10.77;;;-3.40;99.90;;;;;;4863730;29;20040;-78
2024/01/14 03:55:58;;;;;;;35.42;10.88;;;-3.00;99.90;;;;;;4884930;29;20046;-78
2024/01/14 03:58:27;;;;;;;32.05;11.48;;;-3.10;99.90;;;;;;4882390;29;20037;-79
2024/01/14 04:00:55;;;;;;;33.25;11.38;;;-1.90;99.90;;;;;;4864880;29;20087;-78
2024/01/14 04:03:24;;;;;;;34.13;12.15;;;-1.90;99.90;;;;;;4882796;29;20048;-78
2024/01/14 04:05:53;;;;;;;36.25;11.85;;;-2.90;99.90;;;;;;4878259;29;20058;-78
2024/01/14 04:08:24;;;;;;;25.80;9.70;;;-1.90;99.90;;;;;;4873996;29;20079;-78
2024/01/14 04:10:53;;;;;;;35.25;10.32;;;-4.40;99.90;;;;;;4861866;29;20055;-79
2024/01/14 04:13:22;;;;;;;37.28;10.73;;;-3.30;99.90;;;;;;4863890;29;20055;-79
2024/01/14 04:15:51;;;;;;;34.22;10.05;;;-3.10;99.90;;;;;;4889259;29;20045;-79
2024/01/14 04:18:23;;;;;;;35.80;11.38;;;-1.70;99.90;;;;;;4854428;29;20076;-79
2024/01/14 04:20:52;;;;;;;32.47;10.00;;;-3.50;99.90;;;;;;4854425;29;20044;-79
2024/01/14 04:23:21;;;;;;;41.42;12.18;;;-3.10;99.90;;;;;;4854737;29;20133;-79
2024/01/14 04:25:51;;;;;;;31.75;9.43;;;-3.20;99.90;;;;;;4854177;29;20049;-79
2024/01/14 04:28:20;;;;;;;37.97;12.10;;;-2.20;99.90;;;;;;4870795;29;20053;-79
2024/01/14 04:30:52;;;;;;;42.85;11.00;;;-1.90;99.90;;;;;;4857107;29;20048;-79
2024/01/14 04:33:21;;;;;;;30.15;11.30;;;-1.80;99.90;;;;;;4878819;29;20064;-79
2024/01/14 04:35:50;;;;;;;34.95;11.63;;;-3.40;99.90;;;;;;4863408;29;20071;-79
2024/01/14 04:38:19;;;;;;;33.95;9.93;;;-3.20;99.90;;;;;;4886924;29;20044;-79
2024/01/14 04:40:52;;;;;;;37.55;11.68;;;-3.30;99.90;;;;;;4902464;29;20051;-79
2024/01/14 04:43:21;;;;;;;32.75;10.60;;;-3.00;99.90;;;;;;4855336;29;20101;-79
2024/01/14 04:45:50;;;;;;;34.35;10.32;;;-3.10;99.90;;;;;;4870746;29;20037;-79
2024/01/14 04:48:19;;;;;;;48.00;15.10;;;-1.90;99.90;;;;;;4871737;29;20155;-79
2024/01/14 04:50:51;;;;;;;40.15;14.75;;;-3.20;99.90;;;;;;4880500;29;20076;-79
2024/01/14 04:53:20;;;;;;;35.17;12.05;;;-3.00;99.90;;;;;;4871222;29;20052;-79
2024/01/14 04:55:49;;;;;;;32.55;12.65;;;-2.90;99.90;;;;;;4855131;29;20128;-79
2024/01/14 04:58:19;;;;;;;41.50;12.55;;;-3.20;99.90;;;;;;4854046;29;20512;-79
2024/01/14 05:00:48;;;;;;;44.20;12.30;;;-2.80;99.90;;;;;;4852481;29;20175;-79
2024/01/14 05:03:21;;;;;;;30.55;11.07;;;-2.30;99.90;;;;;;4859104;29;20060;-80
2024/01/14 05:05:51;;;;;;;38.78;11.93;;;-2.50;99.90;;;;;;4880411;29;20037;-79
2024/01/14 05:08:20;;;;;;;35.38;11.23;;;-3.50;99.90;;;;;;4859195;29;21925;-79
2024/01/14 05:10:49;;;;;;;31.73;11.70;;;-3.50;99.90;;;;;;4866234;29;20044;-79
2024/01/14 05:13:22;;;;;;;34.05;11.25;;;-3.60;99.90;;;;;;4854751;29;20045;-78
2024/01/14 05:15:54;;;;;;;34.55;11.32;;;-3.60;99.90;;;;;;4871787;29;20060;-79
2024/01/14 05:18:23;;;;;;;34.92;11.18;;;-1.70;99.90;;;;;;4889351;29;20132;-79
2024/01/14 05:20:52;;;;;;;31.25;10.77;;;-3.30;99.90;;;;;;4876523;29;20090;-78
2024/01/14 05:23:21;;;;;;;23.75;8.88;;;-2.90;99.90;;;;;;4885231;29;20037;-78
2024/01/14 05:25:50;;;;;;;34.10;10.77;;;-3.40;99.90;;;;;;4883660;29;20033;-79
2024/01/14 05:28:18;;;;;;;25.85;9.85;;;-2.70;99.90;;;;;;4892800;29;20037;-79
2024/01/14 05:30:56;;;;;;;34.15;10.38;;;-3.50;99.90;;;;;;4887702;29;20044;-78
2024/01/14 05:33:49;;;;;;;28.50;10.77;;;-3.50;99.90;;;;;;5499958;23;20307;-78
2024/01/14 05:36:21;;;;;;;38.00;9.77;;;-3.40;99.90;;;;;;4853669;29;20201;-78
2024/01/14 05:38:49;;;;;;;35.78;11.23;;;-3.40;99.90;;;;;;4884693;29;20558;-78
2024/01/14 05:41:18;;;;;;;29.98;8.68;;;-2.90;99.90;;;;;;4885217;29;20100;-78
2024/01/14 05:43:47;;;;;;;31.25;11.23;;;-3.90;99.90;;;;;;4887514;29;20041;-78
2024/01/14 05:46:17;;;;;;;30.52;8.77;;;-2.20;99.90;;;;;;4867713;29;20037;-78
2024/01/14 05:48:46;;;;;;;25.30;8.98;;;-3.50;99.90;;;;;;4882659;29;20057;-78
2024/01/14 05:51:19;;;;;;;25.80;9.52;;;-3.00;99.90;;;;;;4867908;29;20064;-78
2024/01/14 05:53:47;;;;;;;34.10;10.02;;;-3.60;99.90;;;;;;4884146;29;20081;-78
2024/01/14 05:56:25;;;;;;;30.27;8.68;;;-3.00;99.90;;;;;;4886078;29;20045;-78
2024/01/14 05:58:57;;;;;;;24.60;9.23;;;-3.60;99.90;;;;;;4904242;29;20033;-79
2024/01/14 06:01:28;;;;;;;37.10;9.55;;;-3.50;99.90;;;;;;4877653;29;20057;-78
2024/01/14 06:03:57;;;;;;;30.65;9.23;;;-3.10;99.90;;;;;;4884143;29;20041;-78
2024/01/14 06:06:26;;;;;;;33.35;11.02;;;-3.60;99.90;;;;;;4884083;29;20033;-78
2024/01/14 06:08:55;;;;;;;29.65;9.85;;;-2.50;99.90;;;;;;4867858;29;20041;-77
2024/01/14 06:11:24;;;;;;;34.05;10.05;;;-2.80;99.90;;;;;;4867867;29;20045;-78
2024/01/14 06:13:53;;;;;;;39.95;10.98;;;-4.00;99.90;;;;;;4867626;29;20049;-78
2024/01/14 06:16:22;;;;;;;29.60;10.27;;;-2.20;99.90;;;;;;4884709;29;20031;-79
2024/01/14 06:18:52;;;;;;;42.15;12.15;;;-2.60;99.90;;;;;;4887872;29;20033;-79
2024/01/14 06:21:21;;;;;;;35.90;11.80;;;-2.90;99.90;;;;;;4869047;29;20047;-78
2024/01/14 06:23:53;;;;;;;36.20;12.50;;;-3.60;99.90;;;;;;4893408;29;20041;-78
2024/01/14 06:26:23;;;;;;;32.40;12.13;;;-2.90;99.90;;;;;;4873079;29;20032;-78
2024/01/14 06:28:55;;;;;;;29.67;11.25;;;-2.60;99.90;;;;;;4869222;29;20093;-79
2024/01/14 06:31:24;;;;;;;;;;;-3.70;99.90;;;;;;4881915;29;20044;-78
2024/01/14 06:33:55;;;;;;;28.65;9.70;;;-2.90;99.90;;;;;;4872965;29;21814;-78
2024/01/14 06:36:24;;;;;;;28.73;9.63;;;-3.70;99.90;;;;;;4863438;29;20096;-77
2024/01/14 06:38:55;;;;;;;28.95;9.10;;;-3.80;99.90;;;;;;4874069;29;20044;-78
2024/01/14 06:41:24;;;;;;;27.92;10.18;;;-3.20;99.90;;;;;;4866731;29;20091;-79
2024/01/14 06:43:54;;;;;;;33.63;10.65;;;-2.30;99.90;;;;;;4874081;29;20040;-78
2024/01/14 06:46:25;;;;;;;28.80;10.05;;;-3.70;99.90;;;;;;4873993;29;20037;-79
2024/01/14 06:48:56;;;;;;;41.13;12.57;;;-2.00;99.90;;;;;;4867575;29;20059;-78
2024/01/14 06:51:25;;;;;;;29.63;13.80;;;-3.00;99.90;;;;;;4871132;29;22080;-78
2024/01/14 06:53:54;;;;;;;63.92;21.33;;;-2.80;99.90;;;;;;4856135;29;20045;-78
2024/01/14 06:56:23;;;;;;;53.42;19.73;;;-2.90;99.90;;;;;;4860399;29;20043;-79
2024/01/14 06:58:52;;;;;;;37.30;14.60;;;-2.30;99.90;;;;;;4885050;29;20053;-78
2024/01/14 07:01:21;;;;;;;39.55;13.20;;;-3.70;99.90;;;;;;4871579;29;20163;-78
2024/01/14 07:03:50;;;;;;;46.45;15.27;;;-3.90;99.90;;;;;;4872984;29;20051;-78
2024/01/14 07:06:23;;;;;;;36.83;15.30;;;-3.00;99.90;;;;;;4856395;29;20054;-79
2024/01/14 07:08:52;;;;;;;62.60;22.20;;;-1.90;99.90;;;;;;4856285;29;20040;-78
2024/01/14 07:11:21;;;;;;;56.00;19.95;;;-2.60;99.90;;;;;;4863960;29;20052;-78
2024/01/14 07:13:51;;;;;;;77.38;27.63;;;-3.00;99.90;;;;;;4855664;29;20553;-78
2024/01/14 07:16:20;;;;;;;49.20;18.48;;;-3.20;99.90;;;;;;4856826;29;20045;-78
2024/01/14 07:18:49;;;;;;;41.13;13.20;;;-3.50;99.90;;;;;;4856331;29;20145;-79
2024/01/14 07:21:20;;;;;;;50.38;15.52;;;-1.60;99.90;;;;;;4892260;29;22650;-78
2024/01/14 07:23:51;;;;;;;38.08;15.00;;;-2.50;99.90;;;;;;4863977;29;20064;-78
2024/01/14 07:26:20;;;;;;;58.17;13.85;;;-3.00;99.90;;;;;;4871376;29;20125;-78
2024/01/14 07:28:52;;;;;;;39.03;14.27;;;-1.60;99.90;;;;;;4854152;29;20052;-78
2024/01/14 07:31:22;;;;;;;53.20;18.17;;;-1.80;99.90;;;;;;4872829;29;20033;-79
2024/01/14 07:33:51;;;;;;;42.45;14.85;;;-3.30;99.90;;;;;;4854329;29;20055;-78
2024/01/14 07:36:21;;;;;;;42.67;15.23;;;-3.00;99.90;;;;;;4871555;29;20155;-78
2024/01/14 07:38:53;;;;;;;45.38;14.57;;;-2.50;99.90;;;;;;4872090;29;20032;-78
2024/01/14 07:41:24;;;;;;;41.17;14.38;;;-2.20;99.90;;;;;;4871430;29;20176;-75
2024/01/14 07:43:53;;;;;;;59.92;17.10;;;-1.70;99.90;;;;;;4858245;29;20848;-76
2024/01/14 07:46:21;;;;;;;45.00;14.15;;;-3.00;99.90;;;;;;4876834;29;20502;-76
2024/01/14 07:48:51;;;;;;;46.25;15.27;;;-3.00;99.90;;;;;;4842877;29;20059;-76
2024/01/14 07:51:21;;;;;;;44.30;15.40;;;-2.90;99.90;;;;;;4866962;29;20151;-75
2024/01/14 07:53:52;;;;;;;47.58;15.40;;;-3.00;99.90;;;;;;4850963;29;20052;-75
2024/01/14 07:56:21;;;;;;;47.15;13.38;;;-2.30;99.90;;;;;;4869557;29;20072;-75
2024/01/14 07:58:50;;;;;;;44.72;16.95;;;-2.90;99.90;;;;;;4854297;29;20053;-76
2024/01/14 08:01:18;;;;;;;55.55;21.85;;;-2.90;99.90;;;;;;4857968;29;20060;-76
2024/01/14 08:03:47;;;;;;;51.78;16.08;;;-2.80;99.90;;;;;;4842604;29;20418;-76
2024/01/14 08:06:22;;;;;;;44.75;14.70;;;-2.90;99.90;;;;;;4843531;29;20053;-78
2024/01/14 08:08:52;;;;;;;44.50;15.02;;;-2.90;99.90;;;;;;4852094;29;20077;-76
2024/01/14 08:11:20;;;;;;;32.35;12.88;;;-2.90;99.90;;;;;;4845868;29;20442;-75
2024/01/14 08:13:49;;;;;;;48.72;14.52;;;-2.90;99.90;;;;;;4859853;29;20048;-75
2024/01/14 08:16:18;;;;;;;47.60;12.93;;;-2.90;99.90;;;;;;4842542;29;20065;-76
2024/01/14 08:18:46;;;;;;;41.75;13.55;;;-2.90;99.90;;;;;;4834174;29;20067;-76
2024/01/14 08:21:15;;;;;;;44.15;12.30;;;-2.80;99.90;;;;;;4843666;29;20060;-75
2024/01/14 08:23:43;;;;;;;52.40;18.85;;;-2.70;99.90;;;;;;4873201;29;20049;-76
2024/01/14 08:26:13;;;;;;;57.83;18.40;;;-2.80;99.90;;;;;;4839639;29;20521;-77
2024/01/14 08:28:42;;;;;;;72.32;22.30;;;-2.70;99.90;;;;;;4854919;29;20745;-76
2024/01/14 08:31:12;;;;;;;58.53;20.92;;;-2.70;99.90;;;;;;4840575;29;20581;-77
2024/01/14 08:33:42;;;;;;;64.93;19.92;;;-2.50;99.90;;;;;;4850410;29;20520;-76
2024/01/14 08:36:11;;;;;;;56.13;20.63;;;-2.50;99.90;;;;;;4861221;29;20064;-74
2024/01/14 08:38:41;;;;;;;44.35;17.95;;;-2.50;99.90;;;;;;4848250;29;20136;-77
2024/01/14 08:41:09;;;;;;;55.47;18.60;;;-2.30;99.90;;;;;;4841923;29;20204;-77
2024/01/14 08:43:39;;;;;;;44.67;15.68;;;-2.30;99.90;;;;;;4834346;29;20197;-78
2024/01/14 08:46:09;;;;;;;53.33;15.85;;;-2.20;99.90;;;;;;4829497;29;22399;-76
2024/01/14 08:48:39;;;;;;;40.47;14.98;;;-2.10;99.90;;;;;;4793367;29;20065;-77
2024/01/14 08:51:12;;;;;;;51.53;17.55;;;-2.10;99.90;;;;;;4789949;29;20241;-77
2024/01/14 08:53:41;;;;;;;63.75;18.42;;;-2.20;99.90;;;;;;4773720;29;20222;-77
2024/01/14 08:56:09;;;;;;;63.08;19.48;;;-2.10;99.90;;;;;;4772213;29;20479;-77
2024/01/14 08:58:39;;;;;;;70.35;20.30;;;-2.00;99.90;;;;;;4770920;29;20066;-76
2024/01/14 09:01:07;;;;;;;48.72;14.85;;;-1.90;99.90;;;;;;4772212;29;20057;-77
2024/01/14 09:03:36;;;;;;;49.97;16.83;;;-1.80;99.90;;;;;;4772381;29;20422;-77
2024/01/14 09:06:05;;;;;;;50.08;15.57;;;-1.50;99.90;;;;;;4784927;29;20103;-78
2024/01/14 09:08:34;;;;;;;47.85;12.70;;;-1.60;99.90;;;;;;4773921;29;20101;-77
2024/01/14 09:11:02;;;;;;;49.22;13.13;;;-1.60;99.90;;;;;;4781225;29;20221;-77
2024/01/14 09:13:30;;;;;;;50.10;15.85;;;-1.50;99.90;;;;;;4779827;29;20066;-76
2024/01/14 09:16:01;;;;;;;53.58;16.98;;;-1.50;99.90;;;;;;4791205;29;20058;-77
2024/01/14 09:18:29;;;;;;;63.83;19.80;;;-1.40;99.90;;;;;;4818788;29;20058;-77
2024/01/14 09:20:58;;;;;;;55.97;18.10;;;-1.30;99.90;;;;;;4819084;29;20068;-77
2024/01/14 09:23:29;;;;;;;58.40;16.95;;;-1.20;99.90;;;;;;4833006;29;20105;-76
2024/01/14 09:25:57;;;;;;;53.83;17.35;;;-1.10;99.90;;;;;;4837483;29;20060;-76
2024/01/14 09:28:26;;;;;;;56.80;16.30;;;-1.10;99.90;;;;;;4835215;29;20056;-77
2024/01/14 09:30:54;;;;;;;48.33;15.88;;;-1.00;99.90;;;;;;4836692;29;20080;-76
2024/01/14 09:33:24;;;;;;;45.58;14.35;;;-0.90;99.90;;;;;;4822169;29;20084;-76
2024/01/14 09:35:56;;;;;;;63.72;20.52;;;-0.80;99.90;;;;;;4838097;29;20509;-76
2024/01/14 09:38:25;;;;;;;68.20;21.30;;;-0.90;99.90;;;;;;4839003;29;20064;-77
2024/01/14 09:41:02;;;;;;;55.65;17.30;;;-0.80;99.90;;;;;;4840599;29;20057;-77
2024/01/14 09:43:36;;;;;;;60.22;19.13;;;-0.70;99.90;;;;;;4826322;29;20120;-77
2024/01/14 09:46:05;;;;;;;46.17;15.93;;;-0.60;99.90;;;;;;4835011;29;20488;-76
2024/01/14 09:48:35;;;;;;;45.42;15.63;;;-0.50;99.90;;;;;;4824559;29;20061;-77
2024/01/14 09:51:07;;;;;;;41.22;13.45;;;-0.50;99.90;;;;;;4878455;29;20048;-76
2024/01/14 09:53:38;;;;;;;47.45;17.23;;;-0.50;99.90;;;;;;4849817;29;20144;-77
2024/01/14 09:56:10;;;;;;;48.75;15.55;;;-0.30;99.90;;;;;;4846183;29;20056;-77
2024/01/14 09:58:40;;;;;;;42.10;16.27;;;-0.30;99.90;;;;;;4848606;29;20057;-77
2024/01/14 10:01:10;;;;;;;41.97;16.58;;;-0.20;99.90;;;;;;4848974;29;20088;-77
2024/01/14 10:03:40;;;;;;;44.67;16.42;;;-0.10;99.90;;;;;;4826278;29;20067;-77
2024/01/14 10:06:09;;;;;;;47.88;15.65;;;0.10;99.90;;;;;;4856272;29;20044;-77
2024/01/14 10:08:38;;;;;;;55.90;19.45;;;0.00;99.90;;;;;;4844613;29;20053;-79
2024/01/14 10:11:06;;;;;;;68.85;23.25;;;0.10;99.90;;;;;;4840323;29;20068;-77
2024/01/14 10:13:36;;;;;;;47.63;16.83;;;0.10;99.90;;;;;;4866092;29;20055;-77
2024/01/14 10:16:07;;;;;;;41.58;15.60;;;0.10;99.90;;;;;;4846506;29;20116;-77
2024/01/14 10:18:57;;;;;;;42.38;14.88;;;0.20;99.90;;;;;;4826893;29;20712;-78
2024/01/14 10:21:27;;;;;;;48.80;15.25;;;0.30;99.90;;;;;;4827496;29;20057;-76
2024/01/14 10:23:56;;;;;;;45.63;14.35;;;0.30;99.90;;;;;;4858837;29;20189;-77
2024/01/14 10:26:25;;;;;;;65.07;22.73;;;0.30;99.90;;;;;;4837226;29;20048;-77
2024/01/14 10:28:54;;;;;;;44.90;15.02;;;0.30;99.90;;;;;;4850720;29;20064;-76
2024/01/14 10:31:23;;;;;;;41.90;14.90;;;0.40;99.90;;;;;;4830977;29;20056;-76
2024/01/14 10:33:52;;;;;;;54.75;20.92;;;0.50;99.90;;;;;;4850105;29;20068;-76
2024/01/14 10:36:22;;;;;;;45.13;16.40;;;0.60;99.90;;;;;;4839658;29;20049;-77
2024/01/14 10:38:55;;;;;;;39.50;13.65;;;0.60;99.90;;;;;;4841887;29;20848;-78
2024/01/14 10:41:23;;;;;;;;;;;0.60;99.90;;;;;;4837547;29;20569;-77
2024/01/14 10:43:52;;;;;;;35.72;13.98;;;0.80;99.90;;;;;;4852334;29;19927;-78
2024/01/14 10:46:22;;;;;;;37.65;13.77;;;0.80;99.90;;;;;;4837745;29;20049;-76
2024/01/14 10:48:59;;;;;;;33.75;13.98;;;0.80;99.90;;;;;;4839641;29;20498;-76
2024/01/14 10:51:32;;;;;;;39.30;12.45;;;1.00;99.90;;;;;;4840044;29;22307;-76
2024/01/14 10:54:09;;;;;;;39.38;12.23;;;1.10;99.90;;;;;;4826096;29;21009;-77
2024/01/14 10:56:41;;;;;;;33.03;11.45;;;1.10;99.90;;;;;;4836978;29;20053;-77
2024/01/14 10:59:13;;;;;;;39.97;13.15;;;1.10;99.90;;;;;;4841291;29;20387;-77
2024/01/14 11:01:48;;;;;;;34.30;11.85;;;1.20;99.90;;;;;;4821004;29;22317;-77
2024/01/14 11:04:18;;;;;;;35.70;12.45;;;1.30;99.90;;;;;;4835391;29;20500;-77
2024/01/14 11:06:55;;;;;;;30.00;11.77;;;1.30;99.90;;;;;;4843073;29;20067;-76
2024/01/14 11:09:23;;;;;;;38.60;13.43;;;1.30;99.90;;;;;;4842152;29;20057;-76
2024/01/14 11:11:58;;;;;;;39.63;13.23;;;1.40;99.90;;;;;;4824782;29;20147;-75
2024/01/14 11:14:32;;;;;;;32.70;11.15;;;1.50;99.90;;;;;;4837950;29;20276;-76
2024/01/14 11:17:11;;;;;;;36.22;12.73;;;1.50;99.90;;;;;;4838106;29;20049;-76
2024/01/14 11:19:43;;;;;;;32.92;11.85;;;1.50;99.90;;;;;;4838931;29;20099;-77
2024/01/14 11:22:20;;;;;;;33.40;11.43;;;1.70;99.90;;;;;;4844545;29;20056;-76
2024/01/14 11:25:03;;;;;;;27.98;10.55;;;1.60;99.90;;;;;;4828080;29;20069;-77
2024/01/14 11:27:35;;;;;;;29.92;11.90;;;1.70;99.90;;;;;;4844783;29;20062;-75
2024/01/14 11:30:11;;;;;;;31.83;11.20;;;1.90;99.90;;;;;;4844611;29;20228;-78
2024/01/14 11:32:40;;;;;;;29.13;10.98;;;1.90;99.90;;;;;;4850805;29;20057;-78
2024/01/14 11:35:09;;;;;;;32.85;10.98;;;2.10;99.90;;;;;;4840970;29;20061;-76
2024/01/14 11:37:40;;;;;;;31.73;10.85;;;2.30;99.90;;;;;;4835743;29;20533;-77
2024/01/14 11:40:27;;;;;;;24.70;8.82;;;2.20;99.90;;;;;;4845698;29;20061;-76
2024/01/14 11:43:08;;;;;;;31.92;12.30;;;2.10;99.90;;;;;;4852254;29;20063;-78
2024/01/14 11:45:40;;;;;;;30.08;10.50;;;2.20;99.90;;;;;;4833340;29;20773;-76
2024/01/14 11:48:13;;;;;;;26.45;10.75;;;2.20;99.90;;;;;;4846344;29;20052;-77
2024/01/14 11:50:42;;;;;;;27.48;10.00;;;2.20;99.90;;;;;;4856933;29;20052;-76
2024/01/14 11:53:13;;;;;;;26.05;9.43;;;2.20;99.90;;;;;;4833994;29;20060;-78
2024/01/14 11:55:46;;;;;;;25.27;9.70;;;2.20;99.90;;;;;;4842168;29;20057;-77
2024/01/14 11:58:16;;;;;;;28.33;9.73;;;2.30;99.90;;;;;;4851269;29;20089;-77
2024/01/14 12:00:49;;;;;;;26.08;9.25;;;2.30;99.90;;;;;;4854706;29;20516;-78
2024/01/14 12:03:20;;;;;;;31.98;10.93;;;2.20;99.90;;;;;;4855493;29;20048;-77
2024/01/14 12:06:03;;;;;;;27.70;10.07;;;2.10;99.90;;;;;;4840879;29;20064;-76
2024/01/14 12:08:33;;;;;;;30.27;11.65;;;2.00;99.90;;;;;;4849287;29;22311;-75
2024/01/14 12:11:03;;;;;;;36.08;12.73;;;1.80;99.90;;;;;;4832019;29;20060;-76
2024/01/14 12:13:32;;;;;;;75.00;25.27;;;1.70;99.90;;;;;;4844944;29;22395;-77
2024/01/14 12:16:06;;;;;;;19.85;7.40;;;1.60;99.90;;;;;;4850714;29;20135;-77
2024/01/14 12:18:41;;;;;;;17.75;5.50;;;1.70;99.90;;;;;;4849830;29;20408;-75
2024/01/14 12:21:17;;;;;;;19.73;6.75;;;1.80;99.90;;;;;;4842870;29;20060;-76
2024/01/14 12:24:01;;;;;;;16.02;5.57;;;1.90;99.90;;;;;;4855684;29;20504;-76
2024/01/14 12:26:32;;;;;;;17.55;7.82;;;2.00;99.90;;;;;;4858273;29;20059;-78
2024/01/14 12:29:00;;;;;;;18.58;7.30;;;2.20;99.90;;;;;;4834438;29;20191;-79
2024/01/14 12:31:34;;;;;;;17.88;7.15;;;2.30;99.90;;;;;;4842953;29;20053;-78
2024/01/14 12:34:20;;;;;;;15.50;7.03;;;2.50;99.90;;;;;;4825126;29;20095;-78
2024/01/14 12:36:48;;;;;;;19.48;7.85;;;2.40;99.90;;;;;;4835943;29;20060;-78
2024/01/14 12:39:26;;;;;;;18.58;6.85;;;2.40;99.90;;;;;;4845836;29;20060;-77
2024/01/14 12:41:56;;;;;;;44.88;14.65;;;2.40;99.90;;;;;;4837119;29;20509;-78
2024/01/14 12:44:26;;;;;;;20.55;8.63;;;2.50;99.90;;;;;;4843644;29;20056;-79
2024/01/14 12:47:04;;;;;;;16.35;6.43;;;2.50;99.90;;;;;;4869318;29;20263;-79
2024/01/14 12:49:33;;;;;;;19.70;6.47;;;2.50;99.90;;;;;;4862196;29;20197;-78